Time;durP1;ratioP1;P1;durP2;ratioP2;P2;SDS_P1;SDS_P2;PMS_P1;PMS_P2;Temp;Humidity;BMP_temperature;BMP_pressure;BME280_temperature;BME280_humidity;BME280_pressure;Samples;Min_cycle;Max_cycle;Signal;HPM_P1;HPM_P2
2022/09/02 00:00:19;;;;;;;916.00;836.90;;;10.50;99.90;;;;;;4146907;28;20212;-77
2022/09/02 00:02:19;;;;;;;1935.77;999.90;;;10.50;99.90;;;;;;4147017;28;20663;-77
2022/09/02 00:04:23;;;;;;;1842.73;991.00;;;10.40;99.90;;;;;;4148009;28;20209;-77
2022/09/02 00:06:24;;;;;;;1142.23;998.43;;;10.40;99.90;;;;;;4148362;28;20212;-77
2022/09/02 00:08:25;;;;;;;1281.70;995.10;;;10.40;99.90;;;;;;4148656;28;20177;-77
2022/09/02 00:10:25;;;;;;;882.23;797.30;;;10.40;99.90;;;;;;4148391;28;20231;-77
2022/09/02 00:12:26;;;;;;;1055.60;905.90;;;10.30;99.90;;;;;;4148678;28;20258;-76
2022/09/02 00:14:33;;;;;;;1838.67;988.27;;;10.30;99.90;;;;;;4146582;28;20696;-77
2022/09/02 00:16:33;;;;;;;1999.90;999.90;;;10.30;99.90;;;;;;4148246;28;20201;-77
2022/09/02 00:18:34;;;;;;;1048.07;941.03;;;10.30;99.90;;;;;;4148516;28;20573;-76
2022/09/02 00:20:35;;;;;;;1151.80;900.00;;;10.30;99.90;;;;;;4148526;28;20290;-76
2022/09/02 00:22:36;;;;;;;1834.33;942.83;;;10.30;99.90;;;;;;4157058;28;20319;-77
2022/09/02 00:24:37;;;;;;;1008.73;910.93;;;10.30;99.90;;;;;;4163668;28;20250;-78
2022/09/02 00:26:38;;;;;;;922.97;834.37;;;10.30;99.90;;;;;;4165459;28;20729;-76
2022/09/02 00:28:39;;;;;;;1626.47;999.90;;;10.30;99.90;;;;;;4166169;28;20192;-75
2022/09/02 00:30:41;;;;;;;1486.90;954.43;;;10.20;99.90;;;;;;4164702;28;20304;-75
2022/09/02 00:32:42;;;;;;;1999.90;999.90;;;10.20;99.90;;;;;;4166066;28;20199;-75
2022/09/02 00:34:42;;;;;;;1648.60;983.53;;;10.20;99.90;;;;;;4165119;28;20274;-76
2022/09/02 00:36:43;;;;;;;1999.90;999.90;;;10.10;99.90;;;;;;4165078;28;20205;-76
2022/09/02 00:38:44;;;;;;;1239.63;999.90;;;10.10;99.90;;;;;;4163110;28;20270;-76
2022/09/02 00:40:47;;;;;;;1735.00;987.70;;;10.00;99.90;;;;;;4162831;28;20187;-76
2022/09/02 00:42:49;;;;;;;1876.53;999.90;;;10.00;99.90;;;;;;4163473;28;20188;-76
2022/09/02 00:44:50;;;;;;;1180.73;973.23;;;10.00;99.90;;;;;;4163901;28;20181;-76
2022/09/02 00:46:51;;;;;;;1734.77;978.97;;;10.00;99.90;;;;;;4162915;28;20219;-76
2022/09/02 00:49:34;;;;;;;923.97;845.80;;;9.90;99.90;;;;;;4163919;28;20663;-76
2022/09/02 00:52:12;;;;;;;706.47;653.43;;;9.90;99.90;;;;;;4163115;28;20202;-76
2022/09/02 00:54:14;;;;;;;783.37;726.20;;;9.80;99.90;;;;;;4155720;28;20221;-76
2022/09/02 00:56:22;;;;;;;1527.57;967.03;;;9.80;99.90;;;;;;4164201;28;20276;-75
2022/09/02 00:58:26;;;;;;;1111.50;904.17;;;9.90;99.90;;;;;;4164005;28;20178;-76
2022/09/02 01:00:41;;;;;;;1509.73;999.90;;;9.90;99.90;;;;;;4164075;28;20191;-76
2022/09/02 01:02:43;;;;;;;1103.33;991.40;;;9.80;99.90;;;;;;4163866;28;20167;-76
2022/09/02 01:04:45;;;;;;;934.17;857.10;;;9.80;99.90;;;;;;4163083;28;20191;-75
2022/09/02 01:06:47;;;;;;;663.23;618.80;;;9.80;99.90;;;;;;4163676;28;20196;-76
2022/09/02 01:08:55;;;;;;;1030.67;901.10;;;9.80;99.90;;;;;;4164201;28;20185;-76
2022/09/02 01:10:56;;;;;;;1582.53;999.90;;;9.70;99.90;;;;;;4163730;28;20161;-76
2022/09/02 01:13:00;;;;;;;1058.40;928.13;;;9.60;99.90;;;;;;4163078;28;20188;-76
2022/09/02 01:15:04;;;;;;;1000.07;902.03;;;9.60;99.90;;;;;;4162258;28;20219;-75
2022/09/02 01:17:06;;;;;;;960.90;862.63;;;9.60;99.90;;;;;;4163767;28;20651;-77
2022/09/02 01:19:13;;;;;;;731.07;669.97;;;9.60;99.90;;;;;;4163597;28;20552;-78
2022/09/02 01:21:14;;;;;;;856.97;793.07;;;9.60;99.90;;;;;;4163832;28;20481;-77
2022/09/02 01:23:16;;;;;;;679.43;629.97;;;9.50;99.90;;;;;;4161635;28;20211;-76
2022/09/02 01:25:26;;;;;;;621.33;577.53;;;9.50;99.90;;;;;;4163451;28;20188;-76
2022/09/02 01:27:27;;;;;;;974.23;695.30;;;9.50;99.90;;;;;;4163697;28;20658;-76
2022/09/02 01:29:28;;;;;;;776.47;716.63;;;9.50;99.90;;;;;;4163347;28;20207;-76
2022/09/02 01:31:28;;;;;;;1072.60;920.27;;;9.50;99.90;;;;;;4163152;28;20250;-76
2022/09/02 01:33:29;;;;;;;939.77;854.93;;;9.40;99.90;;;;;;4162487;28;20177;-77
2022/09/02 01:35:30;;;;;;;1003.93;876.03;;;9.40;99.90;;;;;;4163156;28;20269;-76
2022/09/02 01:37:31;;;;;;;1338.83;993.63;;;9.40;99.90;;;;;;4163207;28;20188;-77
2022/09/02 01:39:32;;;;;;;933.90;840.70;;;9.40;99.90;;;;;;4163229;28;20642;-76
2022/09/02 01:41:32;;;;;;;994.87;829.07;;;9.40;99.90;;;;;;4162938;28;20234;-76
2022/09/02 01:43:33;;;;;;;1023.33;827.30;;;9.40;99.90;;;;;;4162551;28;20247;-76
2022/09/02 01:45:35;;;;;;;910.20;816.37;;;9.40;99.90;;;;;;4162703;28;20205;-76
2022/09/02 01:47:36;;;;;;;799.10;737.57;;;9.40;99.90;;;;;;4162869;28;20214;-76
2022/09/02 01:49:38;;;;;;;854.47;784.07;;;9.30;99.90;;;;;;4161726;28;20215;-76
2022/09/02 01:51:39;;;;;;;898.20;824.23;;;9.30;99.90;;;;;;4163198;28;20184;-76
2022/09/02 01:53:39;;;;;;;774.53;699.10;;;9.30;99.90;;;;;;4162293;28;20181;-76
2022/09/02 01:55:40;;;;;;;1055.20;954.23;;;9.30;99.90;;;;;;4162654;28;20279;-76
2022/09/02 01:57:41;;;;;;;916.60;833.70;;;9.20;99.90;;;;;;4162976;28;20189;-76
2022/09/02 01:59:45;;;;;;;790.10;734.23;;;9.20;99.90;;;;;;4162916;28;20184;-76
2022/09/02 02:01:46;;;;;;;926.03;854.50;;;9.20;99.90;;;;;;4162863;28;20185;-76
2022/09/02 02:03:46;;;;;;;1096.73;970.03;;;9.20;99.90;;;;;;4162134;28;20199;-76
2022/09/02 02:05:47;;;;;;;942.40;835.90;;;9.20;99.90;;;;;;4155371;28;20868;-76
2022/09/02 02:07:48;;;;;;;533.13;498.33;;;9.10;99.90;;;;;;4146304;28;20179;-76
2022/09/02 02:09:49;;;;;;;909.97;833.33;;;9.10;99.90;;;;;;4146209;28;20325;-76
2022/09/02 02:11:50;;;;;;;730.13;677.43;;;9.20;99.90;;;;;;4146548;28;20185;-76
2022/09/02 02:13:50;;;;;;;1004.30;723.97;;;9.10;99.90;;;;;;4148010;28;20232;-76
2022/09/02 02:15:51;;;;;;;817.50;750.00;;;9.10;99.90;;;;;;4162756;28;20211;-76
2022/09/02 02:17:51;;;;;;;812.93;744.17;;;9.10;99.90;;;;;;4162601;28;20185;-76
2022/09/02 02:19:52;;;;;;;497.03;469.73;;;9.10;99.90;;;;;;4162830;28;20191;-76
2022/09/02 02:21:53;;;;;;;733.23;679.80;;;9.10;99.90;;;;;;4162936;28;20537;-76
2022/09/02 02:23:53;;;;;;;888.87;813.00;;;9.00;99.90;;;;;;4162504;28;20605;-76
2022/09/02 02:25:54;;;;;;;1074.43;929.60;;;9.00;99.90;;;;;;4161622;28;20209;-76
2022/09/02 02:27:55;;;;;;;794.23;714.17;;;9.00;99.90;;;;;;4162789;28;20185;-76
2022/09/02 02:29:55;;;;;;;1183.00;999.90;;;9.00;99.90;;;;;;4156071;28;20667;-75
2022/09/02 02:31:56;;;;;;;851.87;790.33;;;9.00;99.90;;;;;;4160635;28;20240;-75
2022/09/02 02:33:56;;;;;;;1135.27;915.07;;;9.00;99.90;;;;;;4160858;28;20298;-76
2022/09/02 02:35:58;;;;;;;944.03;859.03;;;8.90;99.90;;;;;;4163126;28;20585;-75
2022/09/02 02:37:58;;;;;;;1027.83;908.53;;;8.90;99.90;;;;;;4162426;28;20599;-76
2022/09/02 02:39:59;;;;;;;912.63;839.53;;;8.80;99.90;;;;;;4162239;28;20207;-76
2022/09/02 02:41:59;;;;;;;406.57;379.63;;;8.90;99.90;;;;;;4162361;28;20694;-76
2022/09/02 02:44:00;;;;;;;623.70;578.53;;;8.80;99.90;;;;;;4161727;28;20275;-76
2022/09/02 02:46:01;;;;;;;649.90;598.67;;;8.70;99.90;;;;;;4162408;28;20238;-76
2022/09/02 02:48:02;;;;;;;814.40;715.93;;;8.70;99.90;;;;;;4162389;28;20184;-76
2022/09/02 02:50:04;;;;;;;957.00;819.83;;;8.70;99.90;;;;;;4162454;28;20427;-76
2022/09/02 02:52:05;;;;;;;868.33;786.73;;;8.60;99.90;;;;;;4162017;28;20241;-76
2022/09/02 02:54:06;;;;;;;749.97;668.53;;;8.70;99.90;;;;;;4160746;28;20869;-77
2022/09/02 02:56:07;;;;;;;1047.23;931.87;;;8.70;99.90;;;;;;4160219;28;20303;-76
2022/09/02 02:58:08;;;;;;;685.33;641.20;;;8.70;99.90;;;;;;4161915;28;20181;-76
2022/09/02 03:00:12;;;;;;;746.67;689.53;;;8.80;99.90;;;;;;4162247;28;20198;-76
2022/09/02 03:02:13;;;;;;;732.63;676.70;;;8.70;99.90;;;;;;4162176;28;20322;-76
2022/09/02 03:04:13;;;;;;;686.00;642.20;;;8.70;99.90;;;;;;4161618;28;20585;-76
2022/09/02 03:06:14;;;;;;;799.13;743.97;;;8.70;99.90;;;;;;4162314;28;20205;-76
2022/09/02 03:08:19;;;;;;;535.23;501.17;;;8.60;99.90;;;;;;4162173;28;20200;-76
2022/09/02 03:10:22;;;;;;;760.93;708.70;;;8.60;99.90;;;;;;4162271;28;20654;-76
2022/09/02 03:12:23;;;;;;;957.47;872.20;;;8.50;99.90;;;;;;4160865;28;20436;-76
2022/09/02 03:14:25;;;;;;;901.30;830.50;;;8.50;99.90;;;;;;4161293;28;20486;-76
2022/09/02 03:16:25;;;;;;;876.13;802.50;;;8.50;99.90;;;;;;4162259;28;20198;-77
2022/09/02 03:18:26;;;;;;;702.20;648.20;;;8.50;99.90;;;;;;4162120;28;20489;-76
2022/09/02 03:20:27;;;;;;;875.30;797.27;;;8.50;99.90;;;;;;4161899;28;20183;-76
2022/09/02 03:22:27;;;;;;;704.57;654.00;;;8.40;99.90;;;;;;4162137;28;20201;-76
2022/09/02 03:24:28;;;;;;;751.03;693.50;;;8.40;99.90;;;;;;4161528;28;20553;-76
2022/09/02 03:26:28;;;;;;;618.20;577.30;;;8.40;99.90;;;;;;4161953;28;20333;-76
2022/09/02 03:28:29;;;;;;;778.50;709.20;;;8.40;99.90;;;;;;4162121;28;20232;-76
2022/09/02 03:30:31;;;;;;;743.30;688.77;;;8.30;99.90;;;;;;4162041;28;20200;-76
2022/09/02 03:32:32;;;;;;;711.07;656.77;;;8.30;99.90;;;;;;4162080;28;20264;-75
2022/09/02 03:34:33;;;;;;;498.67;460.47;;;8.30;99.90;;;;;;4161359;28;20463;-76
2022/09/02 03:36:37;;;;;;;468.83;436.97;;;8.30;99.90;;;;;;4160528;28;20292;-76
2022/09/02 03:38:38;;;;;;;627.47;587.07;;;8.30;99.90;;;;;;4162041;28;20727;-76
2022/09/02 03:40:40;;;;;;;634.63;589.83;;;8.30;99.90;;;;;;4161867;28;20415;-76
2022/09/02 03:42:41;;;;;;;467.07;440.70;;;8.30;99.90;;;;;;4162172;28;20230;-75
2022/09/02 03:44:42;;;;;;;654.67;612.43;;;8.30;99.90;;;;;;4161373;28;20442;-75
2022/09/02 03:46:42;;;;;;;590.20;553.47;;;8.20;99.90;;;;;;4161949;28;20225;-75
2022/09/02 03:48:43;;;;;;;741.43;691.00;;;8.20;99.90;;;;;;4162037;28;20213;-75
2022/09/02 03:50:46;;;;;;;979.90;895.20;;;8.20;99.90;;;;;;4161797;28;20274;-75
2022/09/02 03:52:47;;;;;;;949.23;865.27;;;8.20;99.90;;;;;;4161357;28;20283;-76
2022/09/02 03:54:48;;;;;;;454.63;429.13;;;8.20;99.90;;;;;;4160467;28;20470;-76
2022/09/02 03:56:49;;;;;;;936.13;861.80;;;8.20;99.90;;;;;;4162020;28;20550;-76
2022/09/02 03:58:51;;;;;;;570.27;530.47;;;8.20;99.90;;;;;;4162072;28;20200;-76
2022/09/02 04:00:53;;;;;;;402.07;380.50;;;8.10;99.90;;;;;;4161962;28;21083;-76
2022/09/02 04:02:54;;;;;;;545.73;512.60;;;8.10;99.90;;;;;;4161252;28;20425;-75
2022/09/02 04:04:55;;;;;;;751.00;692.57;;;8.10;99.90;;;;;;4164065;28;20419;-75
2022/09/02 04:06:56;;;;;;;574.93;521.87;;;8.10;99.90;;;;;;4163711;28;20456;-76
2022/09/02 04:08:57;;;;;;;535.70;497.53;;;8.10;99.90;;;;;;4161932;28;20676;-75
2022/09/02 04:10:57;;;;;;;794.47;737.17;;;8.10;99.90;;;;;;4165131;28;20420;-75
2022/09/02 04:12:58;;;;;;;512.97;483.03;;;8.10;99.90;;;;;;4164249;28;20181;-75
2022/09/02 04:14:58;;;;;;;580.10;534.93;;;8.10;99.90;;;;;;4164751;28;20219;-75
2022/09/02 04:16:59;;;;;;;413.27;390.63;;;8.10;99.90;;;;;;4163452;28;20232;-75
2022/09/02 04:19:03;;;;;;;646.57;600.70;;;8.10;99.90;;;;;;4164253;28;20259;-75
2022/09/02 04:21:03;;;;;;;572.57;530.20;;;8.10;99.90;;;;;;4164705;28;20234;-75
2022/09/02 04:23:05;;;;;;;581.83;547.33;;;8.10;99.90;;;;;;4163943;28;20452;-75
2022/09/02 04:25:07;;;;;;;744.73;691.90;;;8.00;99.90;;;;;;4164720;28;20185;-75
2022/09/02 04:27:07;;;;;;;801.80;738.90;;;8.00;99.90;;;;;;4164785;28;20436;-75
2022/09/02 04:29:08;;;;;;;633.97;595.43;;;8.00;99.90;;;;;;4164456;28;20515;-76
2022/09/02 04:31:11;;;;;;;678.40;628.50;;;8.00;99.90;;;;;;4164299;28;20202;-75
2022/09/02 04:33:12;;;;;;;606.83;569.10;;;8.00;99.90;;;;;;4162659;28;20181;-75
2022/09/02 04:35:13;;;;;;;953.87;873.33;;;8.00;99.90;;;;;;4164369;28;20461;-74
2022/09/02 04:37:14;;;;;;;463.27;435.93;;;8.00;99.90;;;;;;4164937;28;20602;-74
2022/09/02 04:39:14;;;;;;;557.93;525.97;;;8.00;99.90;;;;;;4165406;28;20212;-75
2022/09/02 04:41:19;;;;;;;592.57;545.23;;;8.00;99.90;;;;;;4164270;28;20184;-75
2022/09/02 04:43:20;;;;;;;545.93;509.57;;;7.90;99.90;;;;;;4166051;28;20188;-74
2022/09/02 04:45:21;;;;;;;633.17;592.20;;;7.90;99.90;;;;;;4164982;28;20825;-75
2022/09/02 04:47:21;;;;;;;499.00;472.50;;;7.90;99.90;;;;;;4166344;28;20184;-75
2022/09/02 04:49:22;;;;;;;576.77;542.03;;;7.90;99.90;;;;;;4164363;28;20177;-74
2022/09/02 04:51:24;;;;;;;680.20;631.47;;;7.90;99.90;;;;;;4162975;28;20186;-74
2022/09/02 04:53:25;;;;;;;640.90;595.37;;;7.90;99.90;;;;;;4163509;28;20196;-74
2022/09/02 04:55:25;;;;;;;492.77;465.50;;;7.90;99.90;;;;;;4164382;28;20565;-75
2022/09/02 04:57:26;;;;;;;688.67;636.77;;;7.90;99.90;;;;;;4164400;28;20532;-75
2022/09/02 04:59:26;;;;;;;768.17;706.50;;;7.90;99.90;;;;;;4163967;28;20215;-75
2022/09/02 05:01:31;;;;;;;417.20;391.63;;;7.90;99.90;;;;;;4163790;28;20182;-75
2022/09/02 05:03:31;;;;;;;318.67;303.37;;;7.90;99.90;;;;;;4163400;28;20266;-75
2022/09/02 05:05:33;;;;;;;413.00;388.67;;;7.90;99.90;;;;;;4163818;28;20955;-75
2022/09/02 05:07:36;;;;;;;365.20;346.73;;;7.90;99.90;;;;;;4164428;28;20639;-74
2022/09/02 05:09:37;;;;;;;790.03;727.07;;;7.90;99.90;;;;;;4164151;28;20439;-75
2022/09/02 05:11:38;;;;;;;513.73;481.00;;;8.00;99.90;;;;;;4163953;28;20514;-74
2022/09/02 05:13:40;;;;;;;460.17;434.17;;;8.00;99.90;;;;;;4163720;28;20251;-75
2022/09/02 05:15:43;;;;;;;360.13;340.10;;;8.00;99.90;;;;;;4163409;28;20279;-74
2022/09/02 05:17:45;;;;;;;626.30;584.47;;;8.10;99.90;;;;;;4163898;28;20494;-74
2022/09/02 05:19:45;;;;;;;419.67;398.13;;;8.10;99.90;;;;;;4164001;28;20420;-74
2022/09/02 05:21:46;;;;;;;426.33;401.53;;;8.10;99.90;;;;;;4164096;28;20806;-76
2022/09/02 05:23:47;;;;;;;396.63;375.17;;;8.10;99.90;;;;;;4163311;28;20198;-75
2022/09/02 05:25:48;;;;;;;684.13;641.13;;;8.00;99.90;;;;;;4163890;28;20589;-75
2022/09/02 05:27:49;;;;;;;523.43;487.80;;;8.10;99.90;;;;;;4163660;28;20805;-75
2022/09/02 05:29:49;;;;;;;675.87;633.53;;;8.10;99.90;;;;;;4163776;28;20659;-76
2022/09/02 05:31:50;;;;;;;817.17;750.13;;;8.10;99.90;;;;;;4163725;28;20202;-76
2022/09/02 05:33:52;;;;;;;390.63;370.20;;;8.10;99.90;;;;;;4162928;28;20189;-75
2022/09/02 05:35:53;;;;;;;552.83;522.30;;;8.20;99.90;;;;;;4163676;28;20233;-76
2022/09/02 05:37:54;;;;;;;474.30;443.97;;;8.20;99.90;;;;;;4163730;28;20439;-75
2022/09/02 05:39:54;;;;;;;554.57;524.50;;;8.30;99.90;;;;;;4162251;28;20434;-73
2022/09/02 05:41:55;;;;;;;529.90;495.60;;;8.30;99.90;;;;;;4163633;28;20659;-76
2022/09/02 05:43:58;;;;;;;508.87;479.17;;;8.30;99.90;;;;;;4162801;28;20227;-75
2022/09/02 05:46:05;;;;;;;506.27;475.83;;;8.30;99.90;;;;;;4163294;28;20247;-75
2022/09/02 05:49:04;;;;;;;570.57;534.10;;;8.30;99.90;;;;;;4163365;28;21146;-75
2022/09/02 05:50:26;;;;;;;458.87;432.83;;;8.30;99.90;;;;;;4162997;28;20437;-76
2022/09/02 05:52:27;;;;;;;692.47;630.40;;;8.40;99.90;;;;;;4161963;28;20974;-75
2022/09/02 05:54:32;;;;;;;450.77;425.37;;;8.40;99.90;;;;;;4162600;28;20682;-75
2022/09/02 05:56:32;;;;;;;741.60;683.73;;;8.40;99.90;;;;;;4163176;28;20579;-75
2022/09/02 05:58:33;;;;;;;851.30;770.80;;;8.40;99.90;;;;;;4163074;28;20184;-75
2022/09/02 06:00:33;;;;;;;677.97;629.90;;;8.50;99.90;;;;;;4162991;28;20184;-75
2022/09/02 06:02:34;;;;;;;672.20;631.50;;;8.60;99.90;;;;;;4163073;28;20245;-75
2022/09/02 06:04:40;;;;;;;834.97;776.60;;;8.60;99.90;;;;;;4162646;28;20194;-75
2022/09/02 06:06:41;;;;;;;607.03;569.30;;;8.70;99.90;;;;;;4163240;28;20196;-75
2022/09/02 06:08:42;;;;;;;517.50;487.80;;;8.70;99.90;;;;;;4162923;28;20509;-75
2022/09/02 06:10:43;;;;;;;674.70;632.37;;;8.70;99.90;;;;;;4147913;28;20193;-75
2022/09/02 06:12:44;;;;;;;819.77;760.93;;;8.80;99.90;;;;;;4149652;28;20180;-75
2022/09/02 06:14:46;;;;;;;635.67;595.50;;;8.80;99.90;;;;;;4162259;28;20231;-75
2022/09/02 06:16:49;;;;;;;908.53;823.03;;;8.90;99.90;;;;;;4162925;28;20200;-75
2022/09/02 06:18:50;;;;;;;751.30;692.20;;;8.90;99.90;;;;;;4163095;28;20179;-75
2022/09/02 06:20:51;;;;;;;839.30;777.13;;;9.00;99.90;;;;;;4162788;28;20187;-74
2022/09/02 06:22:51;;;;;;;721.57;672.07;;;9.00;99.90;;;;;;4162213;28;20176;-75
2022/09/02 06:24:52;;;;;;;857.27;790.00;;;9.10;99.90;;;;;;4162956;28;20179;-75
2022/09/02 06:26:53;;;;;;;759.10;689.03;;;9.10;99.90;;;;;;4162234;28;20681;-75
2022/09/02 06:28:54;;;;;;;882.63;819.97;;;9.20;99.90;;;;;;4162190;28;20189;-75
2022/09/02 06:30:54;;;;;;;1055.77;952.90;;;9.20;99.90;;;;;;4162670;28;20258;-75
2022/09/02 06:32:55;;;;;;;743.63;692.83;;;9.30;99.90;;;;;;4161946;28;20168;-75
2022/09/02 06:34:55;;;;;;;795.23;737.83;;;9.30;99.90;;;;;;4162443;28;20311;-74
2022/09/02 06:36:56;;;;;;;1378.23;960.83;;;9.40;99.90;;;;;;4162662;28;20215;-75
2022/09/02 06:38:59;;;;;;;965.30;873.33;;;9.50;99.90;;;;;;4161160;28;20191;-75
2022/09/02 06:40:59;;;;;;;895.23;822.13;;;9.60;99.90;;;;;;4161131;28;20354;-75
2022/09/02 06:43:00;;;;;;;834.80;651.37;;;9.70;99.90;;;;;;4161801;28;20183;-74
2022/09/02 06:45:00;;;;;;;1015.23;916.67;;;9.70;99.90;;;;;;4162182;28;20721;-75
2022/09/02 06:47:01;;;;;;;1644.40;951.03;;;9.80;99.90;;;;;;4162435;28;20651;-74
2022/09/02 06:49:03;;;;;;;1523.30;990.57;;;9.90;99.90;;;;;;4161033;28;20184;-75
2022/09/02 06:51:04;;;;;;;1011.87;911.90;;;10.00;99.90;;;;;;4161127;28;20211;-74
2022/09/02 06:53:07;;;;;;;721.73;642.80;;;10.00;99.90;;;;;;4161740;28;20254;-74
2022/09/02 06:55:09;;;;;;;891.60;818.30;;;10.10;99.90;;;;;;4162110;28;20295;-75
2022/09/02 06:57:10;;;;;;;1083.60;921.37;;;10.20;99.90;;;;;;4162395;28;20204;-75
2022/09/02 06:59:10;;;;;;;1412.93;848.73;;;10.20;99.90;;;;;;4162181;28;20188;-75
2022/09/02 07:01:23;;;;;;;1457.27;928.27;;;10.30;99.90;;;;;;4162420;28;20181;-75
2022/09/02 07:05:43;;;;;;;1285.80;950.97;;;10.40;99.90;;;;;;4162205;28;20219;-74
2022/09/02 07:07:45;;;;;;;974.83;889.40;;;10.50;99.90;;;;;;4162389;28;20180;-74
2022/09/02 07:09:45;;;;;;;1806.87;943.77;;;10.60;99.90;;;;;;4162065;28;20181;-73
2022/09/02 07:11:47;;;;;;;1707.33;766.03;;;10.60;99.90;;;;;;4162130;28;20262;-74
2022/09/02 07:13:49;;;;;;;1999.90;982.97;;;10.80;99.90;;;;;;4161575;28;20177;-73
2022/09/02 07:15:50;;;;;;;1904.73;999.90;;;10.90;99.90;;;;;;4162111;28;20200;-74
2022/09/02 07:17:51;;;;;;;1999.90;999.90;;;10.90;99.90;;;;;;4162116;28;20211;-74
2022/09/02 07:19:54;;;;;;;1237.90;887.77;;;11.00;99.90;;;;;;4162148;28;20248;-75
2022/09/02 07:21:55;;;;;;;1986.80;919.67;;;11.10;99.90;;;;;;4160791;28;20188;-75
2022/09/02 07:23:59;;;;;;;1805.77;999.90;;;11.20;99.90;;;;;;4160132;28;20402;-74
2022/09/02 07:25:59;;;;;;;1999.90;993.90;;;11.40;99.90;;;;;;4161964;28;20212;-74
2022/09/02 07:28:00;;;;;;;1767.47;999.90;;;11.40;99.90;;;;;;4162044;28;20809;-74
2022/09/02 07:30:03;;;;;;;765.00;689.90;;;11.50;99.90;;;;;;4161958;28;20189;-74
2022/09/02 07:32:04;;;;;;;1765.67;955.60;;;11.70;99.90;;;;;;4161818;28;20193;-74
2022/09/02 07:34:06;;;;;;;1361.63;812.53;;;11.80;99.90;;;;;;4159930;28;20262;-74
2022/09/02 07:36:09;;;;;;;1161.93;722.07;;;12.20;99.90;;;;;;4161972;28;20201;-73
2022/09/02 07:38:10;;;;;;;1068.03;747.77;;;12.20;99.90;;;;;;4161881;28;20196;-74
2022/09/02 07:40:12;;;;;;;1999.90;849.13;;;12.40;99.40;;;;;;4164599;28;20256;-73
2022/09/02 07:42:13;;;;;;;1791.57;929.87;;;12.60;98.60;;;;;;4165208;28;20204;-74
2022/09/02 07:44:14;;;;;;;631.57;578.70;;;12.60;99.00;;;;;;4164415;28;20184;-74
2022/09/02 07:46:15;;;;;;;1206.13;718.63;;;12.70;98.80;;;;;;4165316;28;20247;-74
2022/09/02 07:48:16;;;;;;;784.57;417.23;;;12.90;97.20;;;;;;4165104;28;20184;-74
2022/09/02 07:50:17;;;;;;;1999.90;935.50;;;13.10;95.80;;;;;;4165127;28;20787;-74
2022/09/02 07:52:17;;;;;;;1058.10;627.87;;;13.10;96.30;;;;;;4165113;28;20184;-74
2022/09/02 07:54:22;;;;;;;1999.90;799.37;;;13.30;95.90;;;;;;4164218;28;20703;-74
2022/09/02 07:56:23;;;;;;;1999.90;931.53;;;13.30;95.80;;;;;;4164960;28;20200;-74
2022/09/02 07:58:25;;;;;;;1999.90;852.27;;;13.30;97.90;;;;;;4164880;28;20187;-74
2022/09/02 08:00:29;;;;;;;1999.90;948.53;;;13.50;96.20;;;;;;4164805;28;20189;-73
2022/09/02 08:02:29;;;;;;;1799.23;921.83;;;13.80;90.70;;;;;;4165070;28;20173;-74
2022/09/02 08:04:30;;;;;;;1999.90;856.40;;;14.10;93.20;;;;;;4150819;28;20224;-74
2022/09/02 08:06:32;;;;;;;1970.30;780.20;;;14.10;94.40;;;;;;4150244;28;20213;-73
2022/09/02 08:08:33;;;;;;;1874.73;624.17;;;14.30;91.20;;;;;;4162893;28;20185;-74
2022/09/02 08:10:35;;;;;;;1145.03;750.67;;;14.50;87.00;;;;;;4164820;28;20187;-73
2022/09/02 08:12:36;;;;;;;1999.90;844.43;;;14.60;87.80;;;;;;4164885;28;20275;-74
2022/09/02 08:14:37;;;;;;;1999.90;880.90;;;14.60;90.80;;;;;;4164220;28;20471;-74
2022/09/02 08:16:39;;;;;;;1911.53;714.13;;;14.70;92.90;;;;;;4163198;28;20670;-74
2022/09/02 08:18:39;;;;;;;1178.57;606.13;;;14.90;91.30;;;;;;4164784;28;20180;-74
2022/09/02 08:20:40;;;;;;;1999.90;765.13;;;15.10;80.40;;;;;;4164589;28;20177;-74
2022/09/02 08:22:40;;;;;;;1999.90;767.60;;;15.20;78.20;;;;;;4164422;28;20195;-74
2022/09/02 08:24:41;;;;;;;1186.87;728.80;;;15.40;81.40;;;;;;4163949;28;20189;-74
2022/09/02 08:26:41;;;;;;;895.50;590.93;;;15.50;83.30;;;;;;4162942;28;20213;-74
2022/09/02 08:28:42;;;;;;;1018.53;482.23;;;15.60;77.00;;;;;;4163466;28;20193;-74
2022/09/02 08:30:43;;;;;;;1230.00;644.70;;;15.70;78.50;;;;;;4164219;28;20181;-73
2022/09/02 08:32:43;;;;;;;1880.17;599.83;;;15.80;77.10;;;;;;4162985;28;20196;-74
2022/09/02 08:34:44;;;;;;;771.67;467.60;;;16.00;77.80;;;;;;4163855;28;20311;-74
2022/09/02 08:36:45;;;;;;;1999.90;787.70;;;16.10;74.80;;;;;;4164766;28;20254;-74
2022/09/02 08:38:46;;;;;;;1318.77;646.00;;;16.30;76.10;;;;;;4164234;28;20264;-74
2022/09/02 08:40:48;;;;;;;1964.37;741.60;;;16.40;74.10;;;;;;4164407;28;20192;-74
2022/09/02 08:42:54;;;;;;;657.37;596.53;;;16.40;73.10;;;;;;4163696;28;20188;-74
2022/09/02 08:45:12;;;;;;;702.70;473.63;;;16.50;71.10;;;;;;4164358;28;20196;-74
2022/09/02 08:47:20;;;;;;;1282.97;527.27;;;16.40;70.00;;;;;;4164161;28;20173;-74
2022/09/02 08:49:42;;;;;;;1437.23;614.70;;;16.50;69.00;;;;;;4164123;28;20271;-74
2022/09/02 08:51:49;;;;;;;1999.90;746.03;;;16.60;69.60;;;;;;4163120;28;20205;-74
2022/09/02 08:54:01;;;;;;;1415.70;585.53;;;16.70;72.00;;;;;;4163411;28;20272;-74
2022/09/02 08:56:05;;;;;;;1505.63;616.10;;;16.80;65.40;;;;;;4162704;28;20294;-74
2022/09/02 08:58:05;;;;;;;1256.03;722.00;;;17.00;69.60;;;;;;4162589;28;20271;-74
2022/09/02 09:00:07;;;;;;;1999.90;731.13;;;16.90;66.30;;;;;;4163803;28;20189;-74
2022/09/02 09:02:55;;;;;;;1999.90;853.67;;;17.10;72.10;;;;;;4164067;28;20181;-74
2022/09/02 09:05:19;;;;;;;1260.30;549.60;;;17.20;70.10;;;;;;4164192;28;20205;-74
2022/09/02 09:07:42;;;;;;;1999.90;767.83;;;17.10;66.30;;;;;;4163674;28;20205;-74
2022/09/02 09:10:04;;;;;;;1999.90;802.53;;;17.50;67.50;;;;;;4163917;28;20199;-74
2022/09/02 09:12:17;;;;;;;1999.90;857.33;;;17.60;66.00;;;;;;4164054;28;20754;-74
2022/09/02 09:14:23;;;;;;;1999.90;876.80;;;17.70;66.50;;;;;;4163354;28;20627;-75
2022/09/02 09:17:07;;;;;;;1790.50;588.20;;;17.70;64.80;;;;;;4163942;28;20694;-74
2022/09/02 09:19:15;;;;;;;1201.30;586.47;;;18.20;63.30;;;;;;4161875;28;20200;-74
2022/09/02 09:21:17;;;;;;;1999.90;814.03;;;18.50;61.60;;;;;;4162494;28;20252;-74
2022/09/02 09:23:24;;;;;;;1993.63;635.40;;;18.40;60.60;;;;;;4161813;28;20177;-74
2022/09/02 09:25:29;;;;;;;969.80;692.00;;;18.70;59.60;;;;;;4178911;28;20269;-74
2022/09/02 09:27:30;;;;;;;1999.90;963.30;;;18.70;59.50;;;;;;4178583;28;20192;-74
2022/09/02 09:29:32;;;;;;;1999.90;950.47;;;18.70;62.90;;;;;;4178803;28;20736;-74
2022/09/02 09:31:35;;;;;;;1755.90;809.00;;;18.60;61.00;;;;;;4163365;28;20199;-74
2022/09/02 09:33:35;;;;;;;1999.90;774.20;;;18.60;58.20;;;;;;4162916;28;20570;-75
2022/09/02 09:35:54;;;;;;;1599.13;670.73;;;18.80;58.10;;;;;;4163434;28;20223;-74
2022/09/02 09:37:55;;;;;;;1999.90;781.57;;;18.90;57.10;;;;;;4163596;28;20323;-74
2022/09/02 09:39:56;;;;;;;1999.90;728.20;;;19.10;55.90;;;;;;4163598;28;20181;-74
2022/09/02 09:42:03;;;;;;;1692.33;809.83;;;19.30;57.10;;;;;;4162227;28;20266;-74
2022/09/02 09:44:06;;;;;;;1210.10;634.00;;;19.50;56.50;;;;;;4161355;28;20185;-74
2022/09/02 09:46:33;;;;;;;1276.07;569.33;;;19.60;54.70;;;;;;4161912;28;20213;-74
2022/09/02 09:48:34;;;;;;;1999.90;832.27;;;19.80;54.40;;;;;;4178113;28;20184;-75
2022/09/02 09:50:35;;;;;;;1893.17;811.67;;;20.20;55.60;;;;;;4163204;28;20686;-74
2022/09/02 09:52:36;;;;;;;1999.90;877.70;;;20.50;52.50;;;;;;4161950;28;20189;-74
2022/09/02 09:54:37;;;;;;;1999.90;906.87;;;20.60;52.50;;;;;;4158154;28;20266;-74
2022/09/02 09:56:38;;;;;;;1202.37;623.10;;;20.50;51.00;;;;;;4162023;28;20193;-74
2022/09/02 09:58:38;;;;;;;1999.90;746.60;;;20.20;53.10;;;;;;4161948;28;20177;-74
2022/09/02 10:00:40;;;;;;;1999.90;840.23;;;20.40;59.50;;;;;;4163075;28;20181;-74
2022/09/02 10:02:54;;;;;;;1897.13;773.53;;;20.20;52.30;;;;;;4179659;28;20176;-74
2022/09/02 10:05:26;;;;;;;1999.90;812.43;;;20.50;53.70;;;;;;4181322;28;20667;-75
2022/09/02 10:07:41;;;;;;;1026.87;534.80;;;21.00;54.10;;;;;;4164670;28;20180;-74
2022/09/02 10:09:42;;;;;;;1913.67;593.73;;;21.20;49.30;;;;;;4164390;28;20280;-74